sensor_id;sensor_type;location;lat;lon;timestamp;P1;durP1;ratioP1;P2;durP2;ratioP2
54193;SDS011;40102;50.906;6.972;2022-07-11T00:01:37;3.17;;;1.30;;
54193;SDS011;40102;50.906;6.972;2022-07-11T00:04:02;1.20;;;1.10;;
54193;SDS011;40102;50.906;6.972;2022-07-11T00:06:28;3.35;;;1.30;;
54193;SDS011;40102;50.906;6.972;2022-07-11T00:08:53;1.92;;;1.30;;
54193;SDS011;40102;50.906;6.972;2022-07-11T00:11:19;5.28;;;1.48;;
54193;SDS011;40102;50.906;6.972;2022-07-11T00:13:44;1.88;;;1.30;;
54193;SDS011;40102;50.906;6.972;2022-07-11T00:16:09;3.05;;;1.80;;
54193;SDS011;40102;50.906;6.972;2022-07-11T00:18:35;5.13;;;1.30;;
54193;SDS011;40102;50.906;6.972;2022-07-11T00:21:00;2.45;;;1.55;;
54193;SDS011;40102;50.906;6.972;2022-07-11T00:23:25;2.55;;;1.40;;
54193;SDS011;40102;50.906;6.972;2022-07-11T00:25:51;2.13;;;1.30;;
54193;SDS011;40102;50.906;6.972;2022-07-11T00:28:16;2.33;;;1.30;;
54193;SDS011;40102;50.906;6.972;2022-07-11T00:30:41;3.20;;;1.10;;
54193;SDS011;40102;50.906;6.972;2022-07-11T00:33:07;1.70;;;1.10;;
54193;SDS011;40102;50.906;6.972;2022-07-11T00:35:32;2.38;;;1.35;;
54193;SDS011;40102;50.906;6.972;2022-07-11T00:37:57;3.53;;;1.58;;
54193;SDS011;40102;50.906;6.972;2022-07-11T00:40:23;2.03;;;1.23;;
54193;SDS011;40102;50.906;6.972;2022-07-11T00:42:48;1.45;;;1.30;;
54193;SDS011;40102;50.906;6.972;2022-07-11T00:45:13;2.25;;;1.30;;
54193;SDS011;40102;50.906;6.972;2022-07-11T00:47:39;1.88;;;1.40;;
54193;SDS011;40102;50.906;6.972;2022-07-11T00:50:04;1.40;;;1.27;;
54193;SDS011;40102;50.906;6.972;2022-07-11T00:52:30;2.30;;;1.45;;
54193;SDS011;40102;50.906;6.972;2022-07-11T00:54:57;2.30;;;1.30;;
54193;SDS011;40102;50.906;6.972;2022-07-11T00:57:22;3.05;;;1.35;;
54193;SDS011;40102;50.906;6.972;2022-07-11T00:59:48;2.58;;;1.23;;
54193;SDS011;40102;50.906;6.972;2022-07-11T01:02:14;1.98;;;1.33;;
54193;SDS011;40102;50.906;6.972;2022-07-11T01:04:39;2.15;;;1.40;;
54193;SDS011;40102;50.906;6.972;2022-07-11T01:07:04;2.15;;;1.42;;
54193;SDS011;40102;50.906;6.972;2022-07-11T01:09:30;3.78;;;1.65;;
54193;SDS011;40102;50.906;6.972;2022-07-11T01:11:57;2.97;;;1.73;;
54193;SDS011;40102;50.906;6.972;2022-07-11T01:14:23;2.45;;;1.20;;
54193;SDS011;40102;50.906;6.972;2022-07-11T01:16:48;3.85;;;1.50;;
54193;SDS011;40102;50.906;6.972;2022-07-11T01:19:16;3.83;;;1.77;;
54193;SDS011;40102;50.906;6.972;2022-07-11T01:21:41;3.92;;;1.50;;
54193;SDS011;40102;50.906;6.972;2022-07-11T01:24:12;2.85;;;1.60;;
54193;SDS011;40102;50.906;6.972;2022-07-11T01:26:38;2.45;;;1.40;;
54193;SDS011;40102;50.906;6.972;2022-07-11T01:29:07;3.92;;;1.65;;
54193;SDS011;40102;50.906;6.972;2022-07-11T01:31:34;2.20;;;1.40;;
54193;SDS011;40102;50.906;6.972;2022-07-11T01:34:02;2.50;;;1.40;;
54193;SDS011;40102;50.906;6.972;2022-07-11T01:36:28;1.85;;;1.10;;
54193;SDS011;40102;50.906;6.972;2022-07-11T01:38:53;4.78;;;1.63;;
54193;SDS011;40102;50.906;6.972;2022-07-11T01:41:19;2.47;;;1.50;;
54193;SDS011;40102;50.906;6.972;2022-07-11T01:43:44;3.65;;;1.52;;
54193;SDS011;40102;50.906;6.972;2022-07-11T01:46:09;1.95;;;1.30;;
54193;SDS011;40102;50.906;6.972;2022-07-11T01:48:35;3.35;;;1.40;;
54193;SDS011;40102;50.906;6.972;2022-07-11T01:51:00;3.80;;;1.50;;
54193;SDS011;40102;50.906;6.972;2022-07-11T01:53:25;3.05;;;1.38;;
54193;SDS011;40102;50.906;6.972;2022-07-11T01:55:51;2.85;;;1.40;;
54193;SDS011;40102;50.906;6.972;2022-07-11T01:58:16;2.55;;;1.50;;
54193;SDS011;40102;50.906;6.972;2022-07-11T02:00:42;2.92;;;1.42;;
54193;SDS011;40102;50.906;6.972;2022-07-11T02:03:07;2.75;;;1.55;;
54193;SDS011;40102;50.906;6.972;2022-07-11T02:05:33;2.97;;;1.70;;
54193;SDS011;40102;50.906;6.972;2022-07-11T02:07:59;1.88;;;1.27;;
54193;SDS011;40102;50.906;6.972;2022-07-11T02:10:49;3.53;;;1.60;;
54193;SDS011;40102;50.906;6.972;2022-07-11T02:13:17;2.67;;;1.42;;
54193;SDS011;40102;50.906;6.972;2022-07-11T02:15:43;2.22;;;1.15;;
54193;SDS011;40102;50.906;6.972;2022-07-11T02:18:10;2.38;;;1.40;;
54193;SDS011;40102;50.906;6.972;2022-07-11T02:20:36;3.22;;;1.60;;
54193;SDS011;40102;50.906;6.972;2022-07-11T02:23:02;1.77;;;1.20;;
54193;SDS011;40102;50.906;6.972;2022-07-11T02:25:29;4.50;;;1.67;;
54193;SDS011;40102;50.906;6.972;2022-07-11T02:27:54;1.88;;;1.30;;
54193;SDS011;40102;50.906;6.972;2022-07-11T02:30:20;2.10;;;1.50;;
54193;SDS011;40102;50.906;6.972;2022-07-11T02:32:45;2.78;;;1.70;;
54193;SDS011;40102;50.906;6.972;2022-07-11T02:35:11;2.97;;;1.40;;
54193;SDS011;40102;50.906;6.972;2022-07-11T02:37:36;2.03;;;1.55;;
54193;SDS011;40102;50.906;6.972;2022-07-11T02:40:02;4.10;;;1.60;;
54193;SDS011;40102;50.906;6.972;2022-07-11T02:42:28;3.78;;;1.70;;
54193;SDS011;40102;50.906;6.972;2022-07-11T02:44:53;2.72;;;1.60;;
54193;SDS011;40102;50.906;6.972;2022-07-11T02:47:19;5.60;;;1.77;;
54193;SDS011;40102;50.906;6.972;2022-07-11T02:49:44;2.92;;;1.70;;
54193;SDS011;40102;50.906;6.972;2022-07-11T02:52:09;3.28;;;1.50;;
54193;SDS011;40102;50.906;6.972;2022-07-11T02:54:36;6.50;;;1.90;;
54193;SDS011;40102;50.906;6.972;2022-07-11T02:57:01;2.63;;;1.50;;
54193;SDS011;40102;50.906;6.972;2022-07-11T02:59:27;2.60;;;1.63;;
54193;SDS011;40102;50.906;6.972;2022-07-11T03:01:52;3.05;;;1.65;;
54193;SDS011;40102;50.906;6.972;2022-07-11T03:04:18;5.10;;;2.28;;
54193;SDS011;40102;50.906;6.972;2022-07-11T03:06:43;3.80;;;1.80;;
54193;SDS011;40102;50.906;6.972;2022-07-11T03:09:09;4.63;;;1.70;;
54193;SDS011;40102;50.906;6.972;2022-07-11T03:11:34;3.10;;;1.70;;
54193;SDS011;40102;50.906;6.972;2022-07-11T03:14:00;3.75;;;1.60;;
54193;SDS011;40102;50.906;6.972;2022-07-11T03:16:26;3.42;;;1.60;;
54193;SDS011;40102;50.906;6.972;2022-07-11T03:18:52;3.72;;;1.90;;
54193;SDS011;40102;50.906;6.972;2022-07-11T03:21:18;3.88;;;1.90;;
54193;SDS011;40102;50.906;6.972;2022-07-11T03:23:43;2.55;;;1.65;;
54193;SDS011;40102;50.906;6.972;2022-07-11T03:26:09;4.00;;;1.90;;
54193;SDS011;40102;50.906;6.972;2022-07-11T03:28:34;4.53;;;1.80;;
54193;SDS011;40102;50.906;6.972;2022-07-11T03:31:00;3.00;;;1.67;;
54193;SDS011;40102;50.906;6.972;2022-07-11T03:33:25;2.30;;;1.70;;
54193;SDS011;40102;50.906;6.972;2022-07-11T03:35:50;2.70;;;1.55;;
54193;SDS011;40102;50.906;6.972;2022-07-11T03:38:19;3.08;;;1.58;;
54193;SDS011;40102;50.906;6.972;2022-07-11T03:40:45;2.83;;;1.42;;
54193;SDS011;40102;50.906;6.972;2022-07-11T03:43:11;4.18;;;1.83;;
54193;SDS011;40102;50.906;6.972;2022-07-11T03:45:36;4.05;;;1.70;;
54193;SDS011;40102;50.906;6.972;2022-07-11T03:48:02;3.97;;;1.50;;
54193;SDS011;40102;50.906;6.972;2022-07-11T03:50:28;2.35;;;1.40;;
54193;SDS011;40102;50.906;6.972;2022-07-11T03:52:54;2.33;;;1.45;;
54193;SDS011;40102;50.906;6.972;2022-07-11T03:55:20;2.92;;;1.60;;
54193;SDS011;40102;50.906;6.972;2022-07-11T03:57:46;2.03;;;1.48;;
54193;SDS011;40102;50.906;6.972;2022-07-11T04:00:12;3.30;;;1.70;;
54193;SDS011;40102;50.906;6.972;2022-07-11T04:02:38;2.67;;;1.50;;
54193;SDS011;40102;50.906;6.972;2022-07-11T04:05:03;1.85;;;1.30;;
54193;SDS011;40102;50.906;6.972;2022-07-11T04:07:29;1.83;;;1.50;;
54193;SDS011;40102;50.906;6.972;2022-07-11T04:09:54;2.00;;;1.50;;
54193;SDS011;40102;50.906;6.972;2022-07-11T04:12:20;1.95;;;1.30;;
54193;SDS011;40102;50.906;6.972;2022-07-11T04:14:45;4.15;;;1.70;;
54193;SDS011;40102;50.906;6.972;2022-07-11T04:17:10;1.50;;;1.38;;
54193;SDS011;40102;50.906;6.972;2022-07-11T04:19:36;3.72;;;1.80;;
54193;SDS011;40102;50.906;6.972;2022-07-11T04:22:01;3.17;;;1.60;;
54193;SDS011;40102;50.906;6.972;2022-07-11T04:24:27;5.72;;;1.90;;
54193;SDS011;40102;50.906;6.972;2022-07-11T04:26:52;3.08;;;1.80;;
54193;SDS011;40102;50.906;6.972;2022-07-11T04:29:18;5.93;;;1.70;;
54193;SDS011;40102;50.906;6.972;2022-07-11T04:31:43;3.38;;;1.80;;
54193;SDS011;40102;50.906;6.972;2022-07-11T04:34:08;3.38;;;1.73;;
54193;SDS011;40102;50.906;6.972;2022-07-11T04:36:34;3.95;;;1.95;;
54193;SDS011;40102;50.906;6.972;2022-07-11T04:38:59;2.38;;;1.58;;
54193;SDS011;40102;50.906;6.972;2022-07-11T04:41:25;2.58;;;1.88;;
54193;SDS011;40102;50.906;6.972;2022-07-11T04:43:50;4.75;;;1.70;;
54193;SDS011;40102;50.906;6.972;2022-07-11T04:46:15;3.15;;;2.08;;
54193;SDS011;40102;50.906;6.972;2022-07-11T04:48:41;3.78;;;1.80;;
54193;SDS011;40102;50.906;6.972;2022-07-11T04:51:06;4.13;;;1.88;;
54193;SDS011;40102;50.906;6.972;2022-07-11T04:53:35;3.42;;;2.17;;
54193;SDS011;40102;50.906;6.972;2022-07-11T04:56:00;4.93;;;2.13;;
54193;SDS011;40102;50.906;6.972;2022-07-11T04:58:26;3.03;;;1.95;;
54193;SDS011;40102;50.906;6.972;2022-07-11T05:00:51;3.58;;;2.17;;
54193;SDS011;40102;50.906;6.972;2022-07-11T05:03:17;2.90;;;1.98;;
54193;SDS011;40102;50.906;6.972;2022-07-11T05:05:45;4.10;;;2.10;;
54193;SDS011;40102;50.906;6.972;2022-07-11T05:08:10;3.13;;;2.00;;
54193;SDS011;40102;50.906;6.972;2022-07-11T05:10:35;3.05;;;1.80;;
54193;SDS011;40102;50.906;6.972;2022-07-11T05:13:01;4.30;;;2.00;;
54193;SDS011;40102;50.906;6.972;2022-07-11T05:15:30;2.25;;;1.60;;
54193;SDS011;40102;50.906;6.972;2022-07-11T05:17:55;4.53;;;2.17;;
54193;SDS011;40102;50.906;6.972;2022-07-11T05:20:21;3.97;;;1.90;;
54193;SDS011;40102;50.906;6.972;2022-07-11T05:22:46;5.10;;;1.95;;
54193;SDS011;40102;50.906;6.972;2022-07-11T05:25:12;4.32;;;1.83;;
54193;SDS011;40102;50.906;6.972;2022-07-11T05:27:37;3.90;;;1.88;;
54193;SDS011;40102;50.906;6.972;2022-07-11T05:30:03;4.22;;;2.50;;
54193;SDS011;40102;50.906;6.972;2022-07-11T05:32:28;4.95;;;2.42;;
54193;SDS011;40102;50.906;6.972;2022-07-11T05:34:54;2.55;;;1.80;;
54193;SDS011;40102;50.906;6.972;2022-07-11T05:37:22;4.78;;;2.00;;
54193;SDS011;40102;50.906;6.972;2022-07-11T05:39:47;3.67;;;1.40;;
54193;SDS011;40102;50.906;6.972;2022-07-11T05:42:13;3.78;;;1.80;;
54193;SDS011;40102;50.906;6.972;2022-07-11T05:44:39;3.20;;;2.10;;
54193;SDS011;40102;50.906;6.972;2022-07-11T05:47:04;3.72;;;2.08;;
54193;SDS011;40102;50.906;6.972;2022-07-11T05:49:30;2.90;;;1.80;;
54193;SDS011;40102;50.906;6.972;2022-07-11T05:51:56;3.80;;;2.15;;
54193;SDS011;40102;50.906;6.972;2022-07-11T05:54:21;4.47;;;2.40;;
54193;SDS011;40102;50.906;6.972;2022-07-11T05:56:47;3.22;;;1.50;;
54193;SDS011;40102;50.906;6.972;2022-07-11T05:59:13;3.55;;;1.63;;
54193;SDS011;40102;50.906;6.972;2022-07-11T06:01:39;4.18;;;1.88;;
54193;SDS011;40102;50.906;6.972;2022-07-11T06:04:04;3.72;;;1.98;;
54193;SDS011;40102;50.906;6.972;2022-07-11T06:06:30;5.13;;;2.20;;
54193;SDS011;40102;50.906;6.972;2022-07-11T06:08:55;6.45;;;2.40;;
54193;SDS011;40102;50.906;6.972;2022-07-11T06:11:21;3.97;;;2.20;;
54193;SDS011;40102;50.906;6.972;2022-07-11T06:13:46;2.72;;;1.95;;
54193;SDS011;40102;50.906;6.972;2022-07-11T06:16:15;5.38;;;2.80;;
54193;SDS011;40102;50.906;6.972;2022-07-11T06:18:41;3.45;;;2.13;;
54193;SDS011;40102;50.906;6.972;2022-07-11T06:21:07;3.53;;;1.98;;
54193;SDS011;40102;50.906;6.972;2022-07-11T06:23:33;3.65;;;2.00;;
54193;SDS011;40102;50.906;6.972;2022-07-11T06:26:01;2.67;;;1.90;;
54193;SDS011;40102;50.906;6.972;2022-07-11T06:28:27;4.00;;;2.00;;
54193;SDS011;40102;50.906;6.972;2022-07-11T06:30:53;4.65;;;2.38;;
54193;SDS011;40102;50.906;6.972;2022-07-11T06:33:19;4.25;;;2.42;;
54193;SDS011;40102;50.906;6.972;2022-07-11T06:35:45;3.50;;;2.28;;
54193;SDS011;40102;50.906;6.972;2022-07-11T06:38:12;3.13;;;2.10;;
54193;SDS011;40102;50.906;6.972;2022-07-11T06:40:38;3.33;;;2.60;;
54193;SDS011;40102;50.906;6.972;2022-07-11T06:43:05;3.25;;;2.20;;
54193;SDS011;40102;50.906;6.972;2022-07-11T06:45:31;3.70;;;2.08;;
54193;SDS011;40102;50.906;6.972;2022-07-11T06:47:58;3.60;;;2.10;;
54193;SDS011;40102;50.906;6.972;2022-07-11T06:50:23;3.35;;;2.00;;
54193;SDS011;40102;50.906;6.972;2022-07-11T06:52:49;6.32;;;2.95;;
54193;SDS011;40102;50.906;6.972;2022-07-11T06:55:14;6.40;;;2.72;;
54193;SDS011;40102;50.906;6.972;2022-07-11T06:57:40;4.50;;;2.50;;
54193;SDS011;40102;50.906;6.972;2022-07-11T07:00:05;4.65;;;2.50;;
54193;SDS011;40102;50.906;6.972;2022-07-11T07:02:34;3.50;;;2.43;;
54193;SDS011;40102;50.906;6.972;2022-07-11T07:05:01;3.60;;;2.50;;
54193;SDS011;40102;50.906;6.972;2022-07-11T07:07:26;4.75;;;2.92;;
54193;SDS011;40102;50.906;6.972;2022-07-11T07:09:52;4.32;;;2.90;;
54193;SDS011;40102;50.906;6.972;2022-07-11T07:12:19;5.57;;;3.60;;
54193;SDS011;40102;50.906;6.972;2022-07-11T07:14:45;5.05;;;3.03;;
54193;SDS011;40102;50.906;6.972;2022-07-11T07:17:10;5.65;;;3.45;;
54193;SDS011;40102;50.906;6.972;2022-07-11T07:19:36;7.25;;;3.67;;
54193;SDS011;40102;50.906;6.972;2022-07-11T07:22:01;5.53;;;3.30;;
54193;SDS011;40102;50.906;6.972;2022-07-11T07:24:27;5.38;;;3.47;;
54193;SDS011;40102;50.906;6.972;2022-07-11T07:26:52;4.68;;;3.45;;
54193;SDS011;40102;50.906;6.972;2022-07-11T07:29:18;5.43;;;3.50;;
54193;SDS011;40102;50.906;6.972;2022-07-11T07:31:43;4.72;;;3.70;;
54193;SDS011;40102;50.906;6.972;2022-07-11T07:34:08;4.85;;;3.53;;
54193;SDS011;40102;50.906;6.972;2022-07-11T07:36:34;6.40;;;4.20;;
54193;SDS011;40102;50.906;6.972;2022-07-11T07:39:00;5.85;;;4.20;;
54193;SDS011;40102;50.906;6.972;2022-07-11T07:41:25;6.70;;;4.00;;
54193;SDS011;40102;50.906;6.972;2022-07-11T07:43:51;6.20;;;4.50;;
54193;SDS011;40102;50.906;6.972;2022-07-11T07:46:17;5.82;;;3.88;;
54193;SDS011;40102;50.906;6.972;2022-07-11T07:48:42;5.57;;;3.88;;
54193;SDS011;40102;50.906;6.972;2022-07-11T07:51:08;6.80;;;4.55;;
54193;SDS011;40102;50.906;6.972;2022-07-11T07:53:34;5.78;;;4.10;;
54193;SDS011;40102;50.906;6.972;2022-07-11T07:55:59;5.70;;;3.80;;
54193;SDS011;40102;50.906;6.972;2022-07-11T07:58:24;5.07;;;3.80;;
54193;SDS011;40102;50.906;6.972;2022-07-11T08:00:50;4.22;;;3.38;;
54193;SDS011;40102;50.906;6.972;2022-07-11T08:03:34;4.40;;;3.50;;
54193;SDS011;40102;50.906;6.972;2022-07-11T08:05:59;4.25;;;3.53;;
54193;SDS011;40102;50.906;6.972;2022-07-11T08:08:25;5.78;;;3.90;;
54193;SDS011;40102;50.906;6.972;2022-07-11T08:10:50;5.13;;;3.53;;
54193;SDS011;40102;50.906;6.972;2022-07-11T08:13:17;6.38;;;3.95;;
54193;SDS011;40102;50.906;6.972;2022-07-11T08:15:42;5.68;;;4.22;;
54193;SDS011;40102;50.906;6.972;2022-07-11T08:18:08;5.90;;;4.75;;
54193;SDS011;40102;50.906;6.972;2022-07-11T08:20:33;8.50;;;4.63;;
54193;SDS011;40102;50.906;6.972;2022-07-11T08:23:02;5.20;;;4.70;;
54193;SDS011;40102;50.906;6.972;2022-07-11T08:25:29;6.35;;;5.03;;
54193;SDS011;40102;50.906;6.972;2022-07-11T08:27:55;9.20;;;5.75;;
54193;SDS011;40102;50.906;6.972;2022-07-11T08:30:20;6.75;;;5.35;;
54193;SDS011;40102;50.906;6.972;2022-07-11T08:32:45;6.55;;;5.40;;
54193;SDS011;40102;50.906;6.972;2022-07-11T08:35:11;7.30;;;5.47;;
54193;SDS011;40102;50.906;6.972;2022-07-11T08:37:36;7.03;;;5.40;;
54193;SDS011;40102;50.906;6.972;2022-07-11T08:40:02;6.88;;;5.88;;
54193;SDS011;40102;50.906;6.972;2022-07-11T08:42:29;7.20;;;5.85;;
54193;SDS011;40102;50.906;6.972;2022-07-11T08:44:57;7.40;;;5.63;;
54193;SDS011;40102;50.906;6.972;2022-07-11T08:47:23;7.93;;;5.43;;
54193;SDS011;40102;50.906;6.972;2022-07-11T08:49:49;8.48;;;6.00;;
54193;SDS011;40102;50.906;6.972;2022-07-11T08:52:16;9.98;;;6.30;;
54193;SDS011;40102;50.906;6.972;2022-07-11T08:54:44;6.93;;;6.22;;
54193;SDS011;40102;50.906;6.972;2022-07-11T08:57:10;8.70;;;6.97;;
54193;SDS011;40102;50.906;6.972;2022-07-11T08:59:36;9.57;;;7.03;;
54193;SDS011;40102;50.906;6.972;2022-07-11T09:02:06;9.50;;;6.78;;
54193;SDS011;40102;50.906;6.972;2022-07-11T09:04:33;9.30;;;7.50;;
54193;SDS011;40102;50.906;6.972;2022-07-11T09:06:59;11.73;;;7.57;;
54193;SDS011;40102;50.906;6.972;2022-07-11T09:09:26;9.50;;;7.63;;
54193;SDS011;40102;50.906;6.972;2022-07-11T09:11:54;10.68;;;8.57;;
54193;SDS011;40102;50.906;6.972;2022-07-11T09:14:24;9.30;;;8.20;;
54193;SDS011;40102;50.906;6.972;2022-07-11T09:16:55;11.98;;;8.60;;
54193;SDS011;40102;50.906;6.972;2022-07-11T09:19:29;11.18;;;8.98;;
54193;SDS011;40102;50.906;6.972;2022-07-11T09:27:40;10.30;;;8.70;;
54193;SDS011;40102;50.906;6.972;2022-07-11T09:30:17;14.73;;;9.20;;
54193;SDS011;40102;50.906;6.972;2022-07-11T09:33:04;9.68;;;8.63;;
54193;SDS011;40102;50.906;6.972;2022-07-11T09:35:30;11.18;;;8.82;;
54193;SDS011;40102;50.906;6.972;2022-07-11T09:37:58;9.50;;;8.32;;
54193;SDS011;40102;50.906;6.972;2022-07-11T09:40:27;10.32;;;7.97;;
54193;SDS011;40102;50.906;6.972;2022-07-11T09:42:56;8.15;;;7.32;;
54193;SDS011;40102;50.906;6.972;2022-07-11T09:45:24;9.35;;;6.90;;
54193;SDS011;40102;50.906;6.972;2022-07-11T09:47:52;8.40;;;6.93;;
54193;SDS011;40102;50.906;6.972;2022-07-11T09:50:20;7.50;;;6.80;;
54193;SDS011;40102;50.906;6.972;2022-07-11T09:53:06;8.07;;;7.00;;
54193;SDS011;40102;50.906;6.972;2022-07-11T09:55:38;7.70;;;6.65;;
54193;SDS011;40102;50.906;6.972;2022-07-11T09:58:06;7.60;;;6.80;;
54193;SDS011;40102;50.906;6.972;2022-07-11T10:03:02;6.47;;;5.88;;
54193;SDS011;40102;50.906;6.972;2022-07-11T10:05:29;6.13;;;5.53;;
54193;SDS011;40102;50.906;6.972;2022-07-11T10:07:55;7.60;;;6.72;;
54193;SDS011;40102;50.906;6.972;2022-07-11T10:10:22;8.30;;;7.50;;
54193;SDS011;40102;50.906;6.972;2022-07-11T10:12:48;8.35;;;7.47;;
54193;SDS011;40102;50.906;6.972;2022-07-11T10:15:17;8.80;;;7.80;;
54193;SDS011;40102;50.906;6.972;2022-07-11T10:20:39;9.27;;;7.97;;
54193;SDS011;40102;50.906;6.972;2022-07-11T10:29:04;12.00;;;9.68;;
54193;SDS011;40102;50.906;6.972;2022-07-11T10:31:32;10.38;;;9.25;;
54193;SDS011;40102;50.906;6.972;2022-07-11T10:34:06;13.25;;;10.27;;
54193;SDS011;40102;50.906;6.972;2022-07-11T10:36:44;11.27;;;9.45;;
54193;SDS011;40102;50.906;6.972;2022-07-11T10:39:20;11.23;;;9.52;;
54193;SDS011;40102;50.906;6.972;2022-07-11T10:41:49;11.13;;;8.93;;
54193;SDS011;40102;50.906;6.972;2022-07-11T10:44:15;9.35;;;8.30;;
54193;SDS011;40102;50.906;6.972;2022-07-11T10:46:41;10.32;;;7.72;;
54193;SDS011;40102;50.906;6.972;2022-07-11T10:51:44;8.50;;;7.35;;
54193;SDS011;40102;50.906;6.972;2022-07-11T11:00:21;9.13;;;7.20;;
54193;SDS011;40102;50.906;6.972;2022-07-11T11:11:01;9.60;;;8.63;;
54193;SDS011;40102;50.906;6.972;2022-07-11T11:13:29;9.82;;;8.82;;
54193;SDS011;40102;50.906;6.972;2022-07-11T11:15:57;10.35;;;9.25;;
54193;SDS011;40102;50.906;6.972;2022-07-11T11:23:28;11.68;;;9.25;;
54193;SDS011;40102;50.906;6.972;2022-07-11T11:26:09;10.52;;;9.43;;
54193;SDS011;40102;50.906;6.972;2022-07-11T11:28:35;10.18;;;9.07;;
54193;SDS011;40102;50.906;6.972;2022-07-11T11:31:02;10.98;;;9.55;;
54193;SDS011;40102;50.906;6.972;2022-07-11T11:33:32;11.80;;;10.27;;
54193;SDS011;40102;50.906;6.972;2022-07-11T11:36:07;11.63;;;10.43;;
54193;SDS011;40102;50.906;6.972;2022-07-11T11:38:44;11.07;;;9.98;;
54193;SDS011;40102;50.906;6.972;2022-07-11T11:41:09;12.05;;;10.85;;
54193;SDS011;40102;50.906;6.972;2022-07-11T11:43:38;11.65;;;10.45;;
54193;SDS011;40102;50.906;6.972;2022-07-11T11:46:07;11.93;;;10.68;;
54193;SDS011;40102;50.906;6.972;2022-07-11T11:48:33;11.68;;;10.48;;
54193;SDS011;40102;50.906;6.972;2022-07-11T11:51:00;11.05;;;9.95;;
54193;SDS011;40102;50.906;6.972;2022-07-11T11:53:27;11.50;;;10.10;;
54193;SDS011;40102;50.906;6.972;2022-07-11T11:55:54;11.15;;;9.85;;
54193;SDS011;40102;50.906;6.972;2022-07-11T11:58:19;10.32;;;9.32;;
54193;SDS011;40102;50.906;6.972;2022-07-11T12:00:53;10.77;;;9.68;;
54193;SDS011;40102;50.906;6.972;2022-07-11T12:03:19;11.27;;;10.18;;
54193;SDS011;40102;50.906;6.972;2022-07-11T12:05:57;11.43;;;9.75;;
54193;SDS011;40102;50.906;6.972;2022-07-11T12:08:28;11.38;;;10.18;;
54193;SDS011;40102;50.906;6.972;2022-07-11T12:10:54;12.07;;;9.60;;
54193;SDS011;40102;50.906;6.972;2022-07-11T12:13:20;10.45;;;9.27;;
54193;SDS011;40102;50.906;6.972;2022-07-11T12:15:46;13.10;;;8.98;;
54193;SDS011;40102;50.906;6.972;2022-07-11T12:18:35;10.65;;;8.57;;
54193;SDS011;40102;50.906;6.972;2022-07-11T12:21:11;10.20;;;8.50;;
54193;SDS011;40102;50.906;6.972;2022-07-11T12:23:37;10.25;;;8.77;;
54193;SDS011;40102;50.906;6.972;2022-07-11T12:26:03;9.75;;;8.75;;
54193;SDS011;40102;50.906;6.972;2022-07-11T12:28:29;9.70;;;8.70;;
54193;SDS011;40102;50.906;6.972;2022-07-11T12:30:55;9.73;;;8.73;;
54193;SDS011;40102;50.906;6.972;2022-07-11T12:33:21;10.65;;;8.80;;
54193;SDS011;40102;50.906;6.972;2022-07-11T12:35:52;10.05;;;8.80;;
54193;SDS011;40102;50.906;6.972;2022-07-11T12:38:22;9.65;;;8.23;;
54193;SDS011;40102;50.906;6.972;2022-07-11T12:41:04;11.20;;;8.52;;
54193;SDS011;40102;50.906;6.972;2022-07-11T12:43:42;9.13;;;8.23;;
54193;SDS011;40102;50.906;6.972;2022-07-11T12:46:33;9.75;;;8.45;;
54193;SDS011;40102;50.906;6.972;2022-07-11T12:49:02;9.15;;;8.23;;
54193;SDS011;40102;50.906;6.972;2022-07-11T12:51:36;8.73;;;7.88;;
54193;SDS011;40102;50.906;6.972;2022-07-11T12:54:05;9.25;;;7.88;;
54193;SDS011;40102;50.906;6.972;2022-07-11T12:56:35;9.98;;;8.90;;
54193;SDS011;40102;50.906;6.972;2022-07-11T12:59:01;10.63;;;9.05;;
54193;SDS011;40102;50.906;6.972;2022-07-11T13:01:28;9.80;;;8.80;;
54193;SDS011;40102;50.906;6.972;2022-07-11T13:03:55;10.60;;;9.40;;
54193;SDS011;40102;50.906;6.972;2022-07-11T13:06:20;10.73;;;9.30;;
54193;SDS011;40102;50.906;6.972;2022-07-11T13:09:04;10.38;;;9.20;;
54193;SDS011;40102;50.906;6.972;2022-07-11T13:11:30;16.70;;;8.90;;
54193;SDS011;40102;50.906;6.972;2022-07-11T13:13:56;10.48;;;8.40;;
54193;SDS011;40102;50.906;6.972;2022-07-11T13:16:22;10.27;;;8.98;;
54193;SDS011;40102;50.906;6.972;2022-07-11T13:18:47;9.48;;;8.23;;
54193;SDS011;40102;50.906;6.972;2022-07-11T13:21:14;12.10;;;9.02;;
54193;SDS011;40102;50.906;6.972;2022-07-11T13:23:40;9.85;;;8.68;;
54193;SDS011;40102;50.906;6.972;2022-07-11T13:26:06;10.45;;;8.63;;
54193;SDS011;40102;50.906;6.972;2022-07-11T13:28:32;8.88;;;7.97;;
54193;SDS011;40102;50.906;6.972;2022-07-11T13:30:58;8.85;;;7.90;;
54193;SDS011;40102;50.906;6.972;2022-07-11T13:33:24;10.05;;;9.05;;
54193;SDS011;40102;50.906;6.972;2022-07-11T13:35:50;9.55;;;8.55;;
54193;SDS011;40102;50.906;6.972;2022-07-11T13:38:17;10.32;;;9.23;;
54193;SDS011;40102;50.906;6.972;2022-07-11T13:40:43;10.35;;;9.10;;
54193;SDS011;40102;50.906;6.972;2022-07-11T13:43:09;9.98;;;8.73;;
54193;SDS011;40102;50.906;6.972;2022-07-11T13:45:35;10.60;;;8.77;;
54193;SDS011;40102;50.906;6.972;2022-07-11T13:48:01;11.75;;;8.82;;
54193;SDS011;40102;50.906;6.972;2022-07-11T13:50:27;11.05;;;9.23;;
54193;SDS011;40102;50.906;6.972;2022-07-11T13:52:52;9.50;;;8.50;;
54193;SDS011;40102;50.906;6.972;2022-07-11T13:55:18;10.82;;;9.27;;
54193;SDS011;40102;50.906;6.972;2022-07-11T13:57:45;10.77;;;8.35;;
54193;SDS011;40102;50.906;6.972;2022-07-11T14:00:14;10.18;;;8.57;;
54193;SDS011;40102;50.906;6.972;2022-07-11T14:02:40;9.57;;;8.35;;
54193;SDS011;40102;50.906;6.972;2022-07-11T14:05:06;10.20;;;9.05;;
54193;SDS011;40102;50.906;6.972;2022-07-11T14:07:32;10.50;;;8.88;;
54193;SDS011;40102;50.906;6.972;2022-07-11T14:09:58;9.82;;;8.50;;
54193;SDS011;40102;50.906;6.972;2022-07-11T14:12:23;9.63;;;8.43;;
54193;SDS011;40102;50.906;6.972;2022-07-11T14:14:49;10.30;;;8.40;;
54193;SDS011;40102;50.906;6.972;2022-07-11T14:17:14;9.88;;;8.48;;
54193;SDS011;40102;50.906;6.972;2022-07-11T14:19:40;9.80;;;7.88;;
54193;SDS011;40102;50.906;6.972;2022-07-11T14:22:05;8.50;;;7.70;;
54193;SDS011;40102;50.906;6.972;2022-07-11T14:24:32;10.25;;;8.50;;
54193;SDS011;40102;50.906;6.972;2022-07-11T14:26:58;9.68;;;8.57;;
54193;SDS011;40102;50.906;6.972;2022-07-11T14:29:24;10.23;;;8.65;;
54193;SDS011;40102;50.906;6.972;2022-07-11T14:31:53;10.40;;;8.32;;
54193;SDS011;40102;50.906;6.972;2022-07-11T14:34:20;9.02;;;8.02;;
54193;SDS011;40102;50.906;6.972;2022-07-11T14:36:46;9.88;;;8.40;;
54193;SDS011;40102;50.906;6.972;2022-07-11T14:39:13;9.27;;;8.25;;
54193;SDS011;40102;50.906;6.972;2022-07-11T14:41:38;8.95;;;8.02;;
54193;SDS011;40102;50.906;6.972;2022-07-11T14:44:04;10.25;;;8.05;;
54193;SDS011;40102;50.906;6.972;2022-07-11T14:46:30;8.45;;;7.60;;
54193;SDS011;40102;50.906;6.972;2022-07-11T14:48:55;10.00;;;7.72;;
54193;SDS011;40102;50.906;6.972;2022-07-11T14:51:21;8.55;;;7.65;;
54193;SDS011;40102;50.906;6.972;2022-07-11T14:53:46;8.52;;;7.43;;
54193;SDS011;40102;50.906;6.972;2022-07-11T14:56:11;9.43;;;7.70;;
54193;SDS011;40102;50.906;6.972;2022-07-11T14:58:37;7.57;;;6.88;;
54193;SDS011;40102;50.906;6.972;2022-07-11T15:01:03;9.00;;;7.75;;
54193;SDS011;40102;50.906;6.972;2022-07-11T15:03:28;7.78;;;6.80;;
54193;SDS011;40102;50.906;6.972;2022-07-11T15:06:02;8.38;;;7.45;;
54193;SDS011;40102;50.906;6.972;2022-07-11T15:08:29;7.55;;;6.75;;
54193;SDS011;40102;50.906;6.972;2022-07-11T15:11:12;7.95;;;7.15;;
54193;SDS011;40102;50.906;6.972;2022-07-11T15:14:07;8.35;;;6.95;;
54193;SDS011;40102;50.906;6.972;2022-07-11T15:16:33;8.02;;;6.95;;
54193;SDS011;40102;50.906;6.972;2022-07-11T15:18:59;7.72;;;6.90;;
54193;SDS011;40102;50.906;6.972;2022-07-11T15:21:25;8.18;;;7.35;;
54193;SDS011;40102;50.906;6.972;2022-07-11T15:23:50;7.82;;;7.03;;